Time;durP1;ratioP1;P1;durP2;ratioP2;P2;SDS_P1;SDS_P2;PMS_P1;PMS_P2;Temp;Humidity;BMP_temperature;BMP_pressure;BME280_temperature;BME280_humidity;BME280_pressure;Samples;Min_cycle;Max_cycle;Signal;HPM_P1;HPM_P2
2021/11/26 00:00:59;;;;;;;;;;;;;;;;;;5072929;28;19919;-65
2021/11/26 00:03:25;;;;;;;;;;;;;;;;;;5081409;28;19922;-64
2021/11/26 00:05:50;;;;;;;;;;;;;;;;;;5085284;28;19999;-65
2021/11/26 00:08:15;;;;;;;;;;;;;;;;;;5090386;28;19920;-66
2021/11/26 00:10:40;;;;;;;;;;;;;;;;;;5084023;28;20441;-64
2021/11/26 00:13:08;;;;;;;;;;;;;;;;;;5087049;28;20294;-66
2021/11/26 00:18:05;;;;;;;;;;;;;;;;;;5080384;28;19908;-65
2021/11/26 00:20:30;;;;;;;;;;;;;;;;;;5091960;28;20388;-65
2021/11/26 00:22:55;;;;;;;;;;;;;;;;;;5083570;28;20023;-66
2021/11/26 00:25:20;;;;;;;;;;;;;;;;;;5089793;28;19916;-65
2021/11/26 00:27:46;;;;;;;;;;;;;;;;;;5082331;28;19912;-65
2021/11/26 00:30:11;;;;;;;;;;;;;;;;;;5079779;28;19931;-65
2021/11/26 00:32:36;;;;;;;;;;;;;;;;;;5089154;28;19916;-65
2021/11/26 00:35:01;;;;;;;;;;;;;;;;;;5081077;28;19916;-66
2021/11/26 00:37:27;;;;;;;;;;;;;;;;;;5092678;28;19945;-65
2021/11/26 00:39:52;;;;;;;;;;;;;;;;;;5085509;28;20474;-66
2021/11/26 00:42:17;;;;;;;;;;;;;;;;;;5080919;28;19935;-66
2021/11/26 00:44:42;;;;;;;;;;;;;;;;;;5092235;28;19985;-65
2021/11/26 00:47:07;;;;;;;;;;;;;;;;;;5081425;28;20015;-65
2021/11/26 00:49:33;;;;;;;;;;;;;;;;;;5090724;28;20099;-65
2021/11/26 00:51:58;;;;;;;;;;;;;;;;;;5084167;28;20106;-67
2021/11/26 00:54:23;;;;;;;;;;;;;;;;;;5080720;28;20352;-66
2021/11/26 00:56:48;;;;;;;;;;;;;;;;;;5091568;28;19916;-65
2021/11/26 00:59:13;;;;;;;;;;;;;;;;;;5084118;28;19916;-66
2021/11/26 01:01:39;;;;;;;;;;;;;;;;;;5081231;28;19950;-66
2021/11/26 01:04:04;;;;;;;;;;;;;;;;;;5083107;28;19963;-67
2021/11/26 01:06:31;;;;;;;;;;;;;;;;;;5081450;28;19992;-66
2021/11/26 01:08:57;;;;;;;;;;;;;;;;;;5091120;28;20027;-65
2021/11/26 01:11:22;;;;;;;;;;;;;;;;;;5079451;28;20363;-66
2021/11/26 01:13:47;;;;;;;;;;;;;;;;;;5088728;28;20169;-65
2021/11/26 01:16:12;;;;;;;;;;;;;;;;;;5079613;28;19923;-66
2021/11/26 01:18:38;;;;;;;;;;;;;;;;;;5082869;28;19929;-66
2021/11/26 01:21:06;;;;;;;;;;;;;;;;;;5089432;28;20319;-66
2021/11/26 01:23:31;;;;;;;;;;;;;;;;;;5079723;28;20420;-66
2021/11/26 01:25:57;;;;;;;;;;;;;;;;;;5088670;28;19925;-66
2021/11/26 01:28:22;;;;;;;;;;;;;;;;;;5085890;28;20427;-66
2021/11/26 01:30:49;;;;;;;;;;;;;;;;;;5080017;28;20010;-66
2021/11/26 01:33:14;;;;;;;;;;;;;;;;;;5088082;28;19916;-66
2021/11/26 01:35:39;;;;;;;;;;;;;;;;;;5082543;28;20218;-67
2021/11/26 01:38:05;;;;;;;;;;;;;;;;;;5093255;28;20318;-67
2021/11/26 01:40:30;;;;;;;;;;;;;;;;;;5084398;28;19916;-63
2021/11/26 01:42:55;;;;;;;;;;;;;;;;;;5082639;28;20011;-65
2021/11/26 01:45:21;;;;;;;;;;;;;;;;;;5087196;28;19960;-66
2021/11/26 01:47:46;;;;;;;;;;;;;;;;;;5080207;28;20028;-66
2021/11/26 01:50:11;;;;;;;;;;;;;;;;;;5084322;28;20007;-67
2021/11/26 01:52:36;;;;;;;;;;;;;;;;;;5084394;28;19922;-65
2021/11/26 01:55:03;;;;;;;;;;;;;;;;;;5081736;28;19939;-65
2021/11/26 01:57:28;;;;;;;;;;;;;;;;;;5090167;28;19916;-65
2021/11/26 01:59:53;;;;;;;;;;;;;;;;;;5082512;28;20300;-66
2021/11/26 02:02:18;;;;;;;;;;;;;;;;;;5083429;28;19937;-67
2021/11/26 02:04:44;;;;;;;;;;;;;;;;;;5088237;28;19955;-66
2021/11/26 02:07:09;;;;;;;;;;;;;;;;;;5082668;28;19962;-65
2021/11/26 02:09:34;;;;;;;;;;;;;;;;;;5088590;28;20364;-65
2021/11/26 02:11:59;;;;;;;;;;;;;;;;;;5082930;28;19997;-66
2021/11/26 02:14:25;;;;;;;;;;;;;;;;;;5085112;28;19923;-66
2021/11/26 02:16:50;;;;;;;;;;;;;;;;;;5083629;28;19915;-65
2021/11/26 02:19:16;;;;;;;;;;;;;;;;;;5078963;28;20380;-65
2021/11/26 02:21:41;;;;;;;;;;;;;;;;;;5085936;28;19930;-65
2021/11/26 02:24:06;;;;;;;;;;;;;;;;;;5083042;28;20533;-66
2021/11/26 02:26:31;;;;;;;;;;;;;;;;;;5082072;28;19916;-67
2021/11/26 02:28:57;;;;;;;;;;;;;;;;;;5084428;28;20437;-66
2021/11/26 02:31:22;;;;;;;;;;;;;;;;;;5080202;28;19924;-65
2021/11/26 02:33:47;;;;;;;;;;;;;;;;;;5084862;28;19918;-66
2021/11/26 02:36:12;;;;;;;;;;;;;;;;;;5081055;28;20380;-66
2021/11/26 02:38:37;;;;;;;;;;;;;;;;;;5081180;28;19916;-66
2021/11/26 02:41:03;;;;;;;;;;;;;;;;;;5087859;28;19923;-65
2021/11/26 02:43:28;;;;;;;;;;;;;;;;;;5081659;28;19942;-66
2021/11/26 02:45:53;;;;;;;;;;;;;;;;;;5086221;28;20031;-65
2021/11/26 02:48:18;;;;;;;;;;;;;;;;;;5078994;28;20287;-65
2021/11/26 02:50:44;;;;;;;;;;;;;;;;;;5081594;28;20344;-66
2021/11/26 02:53:09;;;;;;;;;;;;;;;;;;5087166;28;19918;-65
2021/11/26 02:55:34;;;;;;;;;;;;;;;;;;5079361;28;19927;-66
2021/11/26 02:58:00;;;;;;;;;;;;;;;;;;5089794;28;20326;-65
2021/11/26 03:00:25;;;;;;;;;;;;;;;;;;5078745;28;19950;-66
2021/11/26 03:02:50;;;;;;;;;;;;;;;;;;5081063;28;19916;-67
2021/11/26 03:05:16;;;;;;;;;;;;;;;;;;5087070;28;19916;-65
2021/11/26 03:07:41;;;;;;;;;;;;;;;;;;5078683;28;19969;-65
2021/11/26 03:10:07;;;;;;;;;;;;;;;;;;5084396;28;19923;-66
2021/11/26 03:12:32;;;;;;;;;;;;;;;;;;5078805;28;19924;-65
2021/11/26 03:14:57;;;;;;;;;;;;;;;;;;5078911;28;19966;-65
2021/11/26 03:17:24;;;;;;;;;;;;;;;;;;5085622;28;20014;-65
2021/11/26 03:19:49;;;;;;;;;;;;;;;;;;5081605;28;19958;-65
2021/11/26 03:22:14;;;;;;;;;;;;;;;;;;5087373;28;19956;-64
2021/11/26 03:24:40;;;;;;;;;;;;;;;;;;5078609;28;19936;-64
2021/11/26 03:27:05;;;;;;;;;;;;;;;;;;5081211;28;19923;-65
2021/11/26 03:29:30;;;;;;;;;;;;;;;;;;5090947;28;19912;-65
2021/11/26 03:31:57;;;;;;;;;;;;;;;;;;5081743;28;20359;-66
2021/11/26 03:34:22;;;;;;;;;;;;;;;;;;5105222;27;19916;-65
2021/11/26 03:36:47;;;;;;;;;;;;;;;;;;5081559;28;19919;-66
2021/11/26 03:39:12;;;;;;;;;;;;;;;;;;5083292;28;19915;-65
2021/11/26 03:41:37;;;;;;;;;;;;;;;;;;5090303;28;19952;-65
2021/11/26 03:44:03;;;;;;;;;;;;;;;;;;5085261;28;19916;-65
2021/11/26 03:46:28;;;;;;;;;;;;;;;;;;5086811;28;20383;-65
2021/11/26 03:48:53;;;;;;;;;;;;;;;;;;5082107;28;20379;-65
2021/11/26 03:51:18;;;;;;;;;;;;;;;;;;5084195;28;19920;-65
2021/11/26 03:53:43;;;;;;;;;;;;;;;;;;5090452;28;19916;-66
2021/11/26 03:56:09;;;;;;;;;;;;;;;;;;5084998;28;19920;-66
2021/11/26 03:58:34;;;;;;;;;;;;;;;;;;5087973;28;19954;-65
2021/11/26 04:00:59;;;;;;;;;;;;;;;;;;5086223;28;19924;-65
2021/11/26 04:03:24;;;;;;;;;;;;;;;;;;5082909;28;19960;-65
2021/11/26 04:05:49;;;;;;;;;;;;;;;;;;5089734;28;19963;-66
2021/11/26 04:08:15;;;;;;;;;;;;;;;;;;5083565;28;19943;-65
2021/11/26 04:10:40;;;;;;;;;;;;;;;;;;5089684;28;20348;-65
2021/11/26 04:13:08;;;;;;;;;;;;;;;;;;5082076;28;20290;-66
2021/11/26 04:15:37;;;;;;;;;;;;;;;;;;5083800;28;19940;-65
2021/11/26 04:18:03;;;;;;;;;;;;;;;;;;5085764;28;20031;-66
2021/11/26 04:20:28;;;;;;;;;;;;;;;;;;5082095;28;20007;-66
2021/11/26 04:22:54;;;;;;;;;;;;;;;;;;5090204;28;19974;-66
2021/11/26 04:25:19;;;;;;;;;;;;;;;;;;5081957;28;19926;-67
2021/11/26 04:27:44;;;;;;;;;;;;;;;;;;5083553;28;20488;-66
2021/11/26 04:30:09;;;;;;;;;;;;;;;;;;5089930;28;19920;-66
2021/11/26 04:32:34;;;;;;;;;;;;;;;;;;5084876;28;19931;-65
2021/11/26 04:35:00;;;;;;;;;;;;;;;;;;5091373;28;20357;-67
2021/11/26 04:37:25;;;;;;;;;;;;;;;;;;5083032;28;19955;-66
2021/11/26 04:39:50;;;;;;;;;;;;;;;;;;5080174;28;19920;-66
2021/11/26 04:42:15;;;;;;;;;;;;;;;;;;5091798;28;19919;-65
2021/11/26 04:44:41;;;;;;;;;;;;;;;;;;5080663;28;19926;-65
2021/11/26 04:47:06;;;;;;;;;;;;;;;;;;5091206;28;19922;-65
2021/11/26 04:49:31;;;;;;;;;;;;;;;;;;5082420;28;19913;-65
2021/11/26 04:51:56;;;;;;;;;;;;;;;;;;5081330;28;20322;-66
2021/11/26 04:54:21;;;;;;;;;;;;;;;;;;5090924;28;19931;-66
2021/11/26 04:56:47;;;;;;;;;;;;;;;;;;5081981;28;20376;-67
2021/11/26 04:59:12;;;;;;;;;;;;;;;;;;5090984;28;19966;-66
2021/11/26 05:01:37;;;;;;;;;;;;;;;;;;5096211;27;20424;-67
2021/11/26 05:04:02;;;;;;;;;;;;;;;;;;5081664;28;20390;-66
2021/11/26 05:06:28;;;;;;;;;;;;;;;;;;5089652;28;20600;-66
2021/11/26 05:08:53;;;;;;;;;;;;;;;;;;5079737;28;19920;-67
2021/11/26 05:11:19;;;;;;;;;;;;;;;;;;5086297;28;19924;-67
2021/11/26 05:13:44;;;;;;;;;;;;;;;;;;5082134;28;19920;-66
2021/11/26 05:16:12;;;;;;;;;;;;;;;;;;5081071;28;19986;-66
2021/11/26 05:18:38;;;;;;;;;;;;;;;;;;5089756;28;19924;-67
2021/11/26 05:21:03;;;;;;;;;;;;;;;;;;5082901;28;19993;-66
2021/11/26 05:23:28;;;;;;;;;;;;;;;;;;5074026;28;20012;-64
2021/11/26 05:25:53;;;;;;;;;;;;;;;;;;5083139;28;20038;-67
2021/11/26 05:28:18;;;;;;;;;;;;;;;;;;5083562;28;20408;-64
2021/11/26 05:30:44;;;;;;;;;;;;;;;;;;5089626;28;19920;-65
2021/11/26 05:33:09;;;;;;;;;;;;;;;;;;5082806;28;19927;-65
2021/11/26 05:35:34;;;;;;;;;;;;;;;;;;5091367;28;19923;-65
2021/11/26 05:37:59;;;;;;;;;;;;;;;;;;5083120;28;20018;-65
2021/11/26 05:40:25;;;;;;;;;;;;;;;;;;5087758;28;20376;-65
2021/11/26 05:42:50;;;;;;;;;;;;;;;;;;5091052;28;19916;-65
2021/11/26 05:45:15;;;;;;;;;;;;;;;;;;5080596;28;19915;-65
2021/11/26 05:47:40;;;;;;;;;;;;;;;;;;5089195;28;19917;-67
2021/11/26 05:50:06;;;;;;;;;;;;;;;;;;5097623;27;19927;-65
2021/11/26 05:52:31;;;;;;;;;;;;;;;;;;5081567;28;20787;-65
2021/11/26 05:54:57;;;;;;;;;;;;;;;;;;5088220;28;19915;-65
2021/11/26 05:57:22;;;;;;;;;;;;;;;;;;5093162;28;19955;-66
2021/11/26 05:59:47;;;;;;;;;;;;;;;;;;5089053;28;19943;-66
2021/11/26 06:02:12;;;;;;;;;;;;;;;;;;5079894;28;19916;-65
2021/11/26 06:04:37;;;;;;;;;;;;;;;;;;5081850;28;19923;-67
2021/11/26 06:07:03;;;;;;;;;;;;;;;;;;5091454;28;20475;-66
2021/11/26 06:09:28;;;;;;;;;;;;;;;;;;5076139;28;20408;-66
2021/11/26 06:11:55;;;;;;;;;;;;;;;;;;5082273;28;20209;-66
2021/11/26 06:14:20;;;;;;;;;;;;;;;;;;5080579;28;19959;-65
2021/11/26 06:16:45;;;;;;;;;;;;;;;;;;5080867;28;19916;-65
2021/11/26 06:19:10;;;;;;;;;;;;;;;;;;5087459;28;19920;-65
2021/11/26 06:21:36;;;;;;;;;;;;;;;;;;5082067;28;19912;-65
2021/11/26 06:24:01;;;;;;;;;;;;;;;;;;5089898;28;19927;-66
2021/11/26 06:26:26;;;;;;;;;;;;;;;;;;5081067;28;20591;-67
2021/11/26 06:28:52;;;;;;;;;;;;;;;;;;5081539;28;20366;-66
2021/11/26 06:31:17;;;;;;;;;;;;;;;;;;5085951;28;20068;-64
2021/11/26 06:33:42;;;;;;;;;;;;;;;;;;5068556;28;20668;-65
2021/11/26 06:36:07;;;;;;;;;;;;;;;;;;5104480;28;20327;-64
2021/11/26 06:38:32;;;;;;;;;;;;;;;;;;5087947;28;20465;-65
2021/11/26 06:40:58;;;;;;;;;;;;;;;;;;5088650;28;20204;-65
2021/11/26 06:43:23;;;;;;;;;;;;;;;;;;5089973;28;19969;-65
2021/11/26 06:45:48;;;;;;;;;;;;;;;;;;5085973;28;19916;-64
2021/11/26 06:48:13;;;;;;;;;;;;;;;;;;5088313;28;19970;-64
2021/11/26 06:50:39;;;;;;;;;;;;;;;;;;5089008;28;19920;-64
2021/11/26 06:53:04;;;;;;;;;;;;;;;;;;5088413;28;19920;-64
2021/11/26 06:55:29;;;;;;;;;;;;;;;;;;5088558;28;19920;-65
2021/11/26 06:57:54;;;;;;;;;;;;;;;;;;5088673;28;21132;-65
2021/11/26 07:00:19;;;;;;;;;;;;;;;;;;5087897;28;20372;-64
2021/11/26 07:02:45;;;;;;;;;;;;;;;;;;5088010;28;19916;-65
2021/11/26 07:05:10;;;;;;;;;;;;;;;;;;5098198;28;19923;-64
2021/11/26 07:07:35;;;;;;;;;;;;;;;;;;5094751;28;19950;-65
2021/11/26 07:10:00;;;;;;;;;;;;;;;;;;5091673;28;19924;-64
2021/11/26 07:12:26;;;;;;;;;;;;;;;;;;5074087;28;19927;-65
2021/11/26 07:14:51;;;;;;;;;;;;;;;;;;5093991;28;19923;-64
2021/11/26 07:17:16;;;;;;;;;;;;;;;;;;5089217;28;19916;-65
2021/11/26 07:19:43;;;;;;;;;;;;;;;;;;5091826;28;19916;-64
2021/11/26 07:22:08;;;;;;;;;;;;;;;;;;5105795;27;19916;-64
2021/11/26 07:24:34;;;;;;;;;;;;;;;;;;5091461;28;20008;-65
2021/11/26 07:26:59;;;;;;;;;;;;;;;;;;5089976;28;19945;-67
2021/11/26 07:29:24;;;;;;;;;;;;;;;;;;5093797;28;19969;-65
2021/11/26 07:31:49;;;;;;;;;;;;;;;;;;5091460;28;19931;-64
2021/11/26 07:34:15;;;;;;;;;;;;;;;;;;5090023;28;20010;-64
2021/11/26 07:36:40;;;;;;;;;;;;;;;;;;5091094;28;20383;-66
2021/11/26 07:39:06;;;;;;;;;;;;;;;;;;5088944;28;19912;-64
2021/11/26 07:41:31;;;;;;;;;;;;;;;;;;5092510;28;20388;-65
2021/11/26 07:43:56;;;;;;;;;;;;;;;;;;5089637;28;20014;-65
2021/11/26 07:46:22;;;;;;;;;;;;;;;;;;5092402;28;19916;-65
2021/11/26 07:48:47;;;;;;;;;;;;;;;;;;5089324;28;20118;-65
2021/11/26 07:51:12;;;;;;;;;;;;;;;;;;5090633;28;19932;-65
2021/11/26 07:53:37;;;;;;;;;;;;;;;;;;5089993;28;19927;-66
2021/11/26 07:56:03;;;;;;;;;;;;;;;;;;5092111;28;19923;-65
2021/11/26 07:58:28;;;;;;;;;;;;;;;;;;5092234;28;19923;-65
2021/11/26 08:00:53;;;;;;;;;;;;;;;;;;5091071;28;19923;-65
2021/11/26 08:03:21;;;;;;;;;;;;;;;;;;5089691;28;19915;-65
2021/11/26 08:05:46;;;;;;;;;;;;;;;;;;5090148;28;20243;-65
2021/11/26 08:08:11;;;;;;;;;;;;;;;;;;5090797;28;19927;-65
2021/11/26 08:10:37;;;;;;;;;;;;;;;;;;5087924;28;19927;-66
2021/11/26 08:13:02;;;;;;;;;;;;;;;;;;5090000;28;19917;-67
2021/11/26 08:15:27;;;;;;;;;;;;;;;;;;5071920;28;19923;-66
2021/11/26 08:17:53;;;;;;;;;;;;;;;;;;5087180;28;20266;-64
2021/11/26 08:20:18;;;;;;;;;;;;;;;;;;5078074;28;19916;-65
2021/11/26 08:22:43;;;;;;;;;;;;;;;;;;5086132;28;20254;-65
2021/11/26 08:25:08;;;;;;;;;;;;;;;;;;5087329;28;19924;-65
2021/11/26 08:27:34;;;;;;;;;;;;;;;;;;5089691;28;19920;-65
2021/11/26 08:29:59;;;;;;;;;;;;;;;;;;5068549;28;19924;-66
2021/11/26 08:32:24;;;;;;;;;;;;;;;;;;5090399;28;20428;-64
2021/11/26 08:34:49;;;;;;;;;;;;;;;;;;5082363;28;19920;-67
2021/11/26 08:37:15;;;;;;;;;;;;;;;;;;5088385;28;20395;-65
2021/11/26 08:39:40;;;;;;;;;;;;;;;;;;5088209;28;19970;-64
2021/11/26 08:42:05;;;;;;;;;;;;;;;;;;5088313;28;19938;-65
2021/11/26 08:44:32;;;;;;;;;;;;;;;;;;5075940;28;19999;-66
2021/11/26 08:46:57;;;;;;;;;;;;;;;;;;5079338;28;20319;-66
2021/11/26 08:49:22;;;;;;;;;;;;;;;;;;5087253;28;19965;-65
2021/11/26 08:51:49;;;;;;;;;;;;;;;;;;5068910;28;20250;-66
2021/11/26 08:54:14;;;;;;;;;;;;;;;;;;5089012;28;20006;-65
2021/11/26 08:56:41;;;;;;;;;;;;;;;;;;5087350;28;20002;-65
2021/11/26 08:59:06;;;;;;;;;;;;;;;;;;5092755;28;19916;-66
2021/11/26 09:01:31;;;;;;;;;;;;;;;;;;5090270;28;19916;-65
2021/11/26 09:03:57;;;;;;;;;;;;;;;;;;5083861;28;19923;-67
2021/11/26 09:06:24;;;;;;;;;;;;;;;;;;5079148;28;20709;-65
2021/11/26 09:08:49;;;;;;;;;;;;;;;;;;5088591;28;19930;-65
2021/11/26 09:11:16;;;;;;;;;;;;;;;;;;5086000;28;19919;-66
2021/11/26 09:13:41;;;;;;;;;;;;;;;;;;5085961;28;19924;-64
2021/11/26 09:16:06;;;;;;;;;;;;;;;;;;5084307;28;20279;-65
2021/11/26 09:18:32;;;;;;;;;;;;;;;;;;5086394;28;19924;-66
2021/11/26 09:20:58;;;;;;;;;;;;;;;;;;5087259;28;20292;-65
2021/11/26 09:23:24;;;;;;;;;;;;;;;;;;5085659;28;19916;-64
2021/11/26 09:25:49;;;;;;;;;;;;;;;;;;5088103;28;20292;-66
2021/11/26 09:28:14;;;;;;;;;;;;;;;;;;5086166;28;20241;-67
2021/11/26 09:30:39;;;;;;;;;;;;;;;;;;5086277;28;20238;-65
2021/11/26 09:33:06;;;;;;;;;;;;;;;;;;5087191;28;20276;-66
2021/11/26 09:35:31;;;;;;;;;;;;;;;;;;5086219;28;20371;-66
2021/11/26 09:37:59;;;;;;;;;;;;;;;;;;5089541;28;20669;-65
2021/11/26 09:40:24;;;;;;;;;;;;;;;;;;5084665;28;20016;-65
2021/11/26 09:42:49;;;;;;;;;;;;;;;;;;5091051;28;19937;-65
2021/11/26 09:45:17;;;;;;;;;;;;;;;;;;5086684;28;20327;-65
2021/11/26 09:47:42;;;;;;;;;;;;;;;;;;5081851;28;20381;-66
2021/11/26 09:50:08;;;;;;;;;;;;;;;;;;5091760;28;19978;-65
2021/11/26 09:52:33;;;;;;;;;;;;;;;;;;5088280;28;19951;-66
2021/11/26 09:54:58;;;;;;;;;;;;;;;;;;5079629;28;20336;-65
2021/11/26 09:57:23;;;;;;;;;;;;;;;;;;5084557;28;19915;-67
2021/11/26 09:59:49;;;;;;;;;;;;;;;;;;5086058;28;19916;-65
2021/11/26 10:02:14;;;;;;;;;;;;;;;;;;5086989;28;20450;-65
2021/11/26 10:04:39;;;;;;;;;;;;;;;;;;5086888;28;19923;-65
2021/11/26 10:07:05;;;;;;;;;;;;;;;;;;5084641;28;19916;-65
2021/11/26 10:09:30;;;;;;;;;;;;;;;;;;5085110;28;19930;-65
2021/11/26 10:11:55;;;;;;;;;;;;;;;;;;5102441;27;19956;-66
2021/11/26 10:14:20;;;;;;;;;;;;;;;;;;5083250;28;19924;-65
2021/11/26 10:16:46;;;;;;;;;;;;;;;;;;5069272;28;19916;-64
2021/11/26 10:19:11;;;;;;;;;;;;;;;;;;5084842;28;19916;-66
2021/11/26 10:21:36;;;;;;;;;;;;;;;;;;5086929;28;20389;-65
2021/11/26 10:24:02;;;;;;;;;;;;;;;;;;5085444;28;19969;-66
2021/11/26 10:26:27;;;;;;;;;;;;;;;;;;5088633;28;19919;-65
2021/11/26 10:28:53;;;;;;;;;;;;;;;;;;5084345;28;19919;-66
2021/11/26 10:31:18;;;;;;;;;;;;;;;;;;5085164;28;19920;-66
2021/11/26 10:33:43;;;;;;;;;;;;;;;;;;5086232;28;19971;-65
2021/11/26 10:36:10;;;;;;;;;;;;;;;;;;5087658;28;20429;-66
2021/11/26 10:38:35;;;;;;;;;;;;;;;;;;5087652;28;20014;-64
2021/11/26 10:41:01;;;;;;;;;;;;;;;;;;5091009;28;20317;-66
2021/11/26 10:43:33;;;;;;;;;;;;;;;;;;5092233;28;19994;-67
2021/11/26 10:59:00;;;;;;;;;;;;;;;;;;5090529;28;19927;-66
2021/11/26 11:01:26;;;;;;;;;;;;;;;;;;5088887;28;20655;-67
2021/11/26 11:03:51;;;;;;;;;;;;;;;;;;5084129;28;19919;-66
2021/11/26 11:06:17;;;;;;;;;;;;;;;;;;5088831;28;19915;-66
2021/11/26 11:08:42;;;;;;;;;;;;;;;;;;5088009;28;19919;-66
2021/11/26 11:11:07;;;;;;;;;;;;;;;;;;5079605;28;19920;-66
2021/11/26 11:13:32;;;;;;;;;;;;;;;;;;5101818;28;19972;-66
2021/11/26 11:15:57;;;;;;;;;;;;;;;;;;5103199;28;19915;-65
2021/11/26 11:18:23;;;;;;;;;;;;;;;;;;5117664;27;19930;-66
2021/11/26 11:20:48;;;;;;;;;;;;;;;;;;5102209;28;19916;-65
2021/11/26 11:23:16;;;;;;;;;;;;;;;;;;5102221;28;19916;-66
2021/11/26 11:25:41;;;;;;;;;;;;;;;;;;5100818;28;19956;-66
2021/11/26 11:28:07;;;;;;;;;;;;;;;;;;5101694;28;19923;-66
2021/11/26 11:30:33;;;;;;;;;;;;;;;;;;5101103;28;19968;-66
2021/11/26 11:32:58;;;;;;;;;;;;;;;;;;5107322;28;20254;-66
2021/11/26 11:35:24;;;;;;;;;;;;;;;;;;5103506;28;19916;-67
2021/11/26 11:37:49;;;;;;;;;;;;;;;;;;5105946;28;19995;-66
2021/11/26 11:40:14;;;;;;;;;;;;;;;;;;5106085;28;19923;-66
2021/11/26 11:42:43;;;;;;;;;;;;;;;;;;5105395;28;19916;-66
2021/11/26 11:45:10;;;;;;;;;;;;;;;;;;5101193;28;19912;-65
2021/11/26 11:47:35;;;;;;;;;;;;;;;;;;5105193;28;20388;-66
2021/11/26 11:50:00;;;;;;;;;;;;;;;;;;5102805;28;19969;-66
2021/11/26 11:52:25;;;;;;;;;;;;;;;;;;5105574;28;19926;-65
2021/11/26 11:54:51;;;;;;;;;;;;;;;;;;5107179;28;19954;-65
2021/11/26 11:57:16;;;;;;;;;;;;;;;;;;5104371;28;19916;-65
2021/11/26 11:59:41;;;;;;;;;;;;;;;;;;5107179;28;20084;-67
2021/11/26 12:02:06;;;;;;;;;;;;;;;;;;5102238;28;20485;-66
2021/11/26 12:04:35;;;;;;;;;;;;;;;;;;5104587;28;19919;-65
2021/11/26 12:07:00;;;;;;;;;;;;;;;;;;5104518;28;19920;-67
2021/11/26 12:09:25;;;;;;;;;;;;;;;;;;5104078;28;19965;-66
2021/11/26 12:11:55;;;;;;;;;;;;;;;;;;5104740;28;19920;-66
2021/11/26 12:14:20;;;;;;;;;;;;;;;;;;5106124;28;19920;-66
2021/11/26 12:16:46;;;;;;;;;;;;;;;;;;5105668;28;19967;-65
2021/11/26 12:19:11;;;;;;;;;;;;;;;;;;5085660;28;19974;-67
2021/11/26 12:21:36;;;;;;;;;;;;;;;;;;5106703;28;19916;-66
2021/11/26 12:24:08;;;;;;;;;;;;;;;;;;5104285;28;19938;-67
2021/11/26 12:26:38;;;;;;;;;;;;;;;;;;5101989;28;19959;-66
2021/11/26 12:29:03;;;;;;;;;;;;;;;;;;5103618;28;19922;-66
2021/11/26 12:31:29;;;;;;;;;;;;;;;;;;5106411;28;19920;-66
2021/11/26 12:33:54;;;;;;;;;;;;;;;;;;5105291;28;19920;-66
2021/11/26 12:36:19;;;;;;;;;;;;;;;;;;5104357;28;19912;-66
2021/11/26 12:38:45;;;;;;;;;;;;;;;;;;5105850;28;19942;-67
2021/11/26 12:41:10;;;;;;;;;;;;;;;;;;5104340;28;19973;-66
2021/11/26 12:43:36;;;;;;;;;;;;;;;;;;5107074;28;19923;-66
2021/11/26 12:46:01;;;;;;;;;;;;;;;;;;5106419;28;19920;-67
2021/11/26 12:48:33;;;;;;;;;;;;;;;;;;5104329;28;19916;-66
2021/11/26 12:51:04;;;;;;;;;;;;;;;;;;5105576;28;20204;-66
2021/11/26 12:53:30;;;;;;;;;;;;;;;;;;5105306;28;19920;-66
2021/11/26 12:55:55;;;;;;;;;;;;;;;;;;5101719;28;19916;-66
2021/11/26 12:58:20;;;;;;;;;;;;;;;;;;5079459;28;20028;-66
2021/11/26 13:00:45;;;;;;;;;;;;;;;;;;5099114;28;19938;-66
2021/11/26 13:03:11;;;;;;;;;;;;;;;;;;5098817;28;19927;-65
2021/11/26 13:05:36;;;;;;;;;;;;;;;;;;5102617;28;19962;-65
2021/11/26 13:08:01;;;;;;;;;;;;;;;;;;5105029;28;19920;-67
2021/11/26 13:10:26;;;;;;;;;;;;;;;;;;5100928;28;19970;-66
2021/11/26 13:12:53;;;;;;;;;;;;;;;;;;5098372;28;19927;-66
2021/11/26 13:15:18;;;;;;;;;;;;;;;;;;5103675;28;19936;-66
2021/11/26 13:17:50;;;;;;;;;;;;;;;;;;5098392;28;19975;-66
2021/11/26 13:20:15;;;;;;;;;;;;;;;;;;5114495;27;19916;-66
2021/11/26 13:22:40;;;;;;;;;;;;;;;;;;5099254;28;19926;-65
2021/11/26 13:25:06;;;;;;;;;;;;;;;;;;5100636;28;19937;-66
2021/11/26 13:27:31;;;;;;;;;;;;;;;;;;5100289;28;20022;-65
2021/11/26 13:29:56;;;;;;;;;;;;;;;;;;5108251;28;19927;-66
2021/11/26 13:32:21;;;;;;;;;;;;;;;;;;5103610;28;19924;-66
2021/11/26 13:34:47;;;;;;;;;;;;;;;;;;5084552;28;19916;-67
2021/11/26 13:37:12;;;;;;;;;;;;;;;;;;5105800;28;19927;-68
2021/11/26 13:39:37;;;;;;;;;;;;;;;;;;5106106;28;19916;-68
2021/11/26 13:42:02;;;;;;;;;;;;;;;;;;5103419;28;19916;-68
2021/11/26 13:44:27;;;;;;;;;;;;;;;;;;5106513;28;20031;-65
2021/11/26 13:46:53;;;;;;;;;;;;;;;;;;5105386;28;19916;-66
2021/11/26 13:49:18;;;;;;;;;;;;;;;;;;5102582;28;19916;-66
2021/11/26 13:51:43;;;;;;;;;;;;;;;;;;5086275;28;20288;-64
2021/11/26 13:54:08;;;;;;;;;;;;;;;;;;5106387;28;19926;-64
2021/11/26 13:56:33;;;;;;;;;;;;;;;;;;5104212;28;19923;-66
2021/11/26 13:58:59;;;;;;;;;;;;;;;;;;5103787;28;19916;-66
2021/11/26 14:01:24;;;;;;;;;;;;;;;;;;5105013;28;20320;-66
2021/11/26 14:03:49;;;;;;;;;;;;;;;;;;5104481;28;19972;-64
2021/11/26 14:06:14;;;;;;;;;;;;;;;;;;5103847;28;20312;-65
2021/11/26 14:08:40;;;;;;;;;;;;;;;;;;5098808;28;19939;-66
2021/11/26 14:11:07;;;;;;;;;;;;;;;;;;5103931;28;19956;-66
2021/11/26 14:13:33;;;;;;;;;;;;;;;;;;5117797;27;19930;-65
2021/11/26 14:15:58;;;;;;;;;;;;;;;;;;5104236;28;19940;-67
2021/11/26 14:18:23;;;;;;;;;;;;;;;;;;5102874;28;19908;-67
2021/11/26 14:20:48;;;;;;;;;;;;;;;;;;5108366;28;19924;-66
2021/11/26 14:23:14;;;;;;;;;;;;;;;;;;5108760;28;19923;-66
2021/11/26 14:25:39;;;;;;;;;;;;;;;;;;5104090;28;19916;-65
2021/11/26 14:28:04;;;;;;;;;;;;;;;;;;5086929;28;19916;-66
2021/11/26 14:30:30;;;;;;;;;;;;;;;;;;5101919;28;19927;-66
2021/11/26 14:32:55;;;;;;;;;;;;;;;;;;5103346;28;20507;-66
2021/11/26 14:35:20;;;;;;;;;;;;;;;;;;5101470;28;19916;-66
2021/11/26 14:37:46;;;;;;;;;;;;;;;;;;5104626;28;20168;-66
2021/11/26 14:40:11;;;;;;;;;;;;;;;;;;5104460;28;19927;-66
2021/11/26 14:42:36;;;;;;;;;;;;;;;;;;5104432;28;19916;-67
2021/11/26 14:45:02;;;;;;;;;;;;;;;;;;5105704;28;19916;-66
2021/11/26 14:47:27;;;;;;;;;;;;;;;;;;5103856;28;20443;-66
2021/11/26 14:49:53;;;;;;;;;;;;;;;;;;5102663;28;19916;-67
2021/11/26 14:52:18;;;;;;;;;;;;;;;;;;5103706;28;19931;-67
2021/11/26 14:54:44;;;;;;;;;;;;;;;;;;5104696;28;19947;-66
2021/11/26 14:57:09;;;;;;;;;;;;;;;;;;5103292;28;20335;-67
2021/11/26 14:59:34;;;;;;;;;;;;;;;;;;5108531;28;19916;-67
2021/11/26 15:01:59;;;;;;;;;;;;;;;;;;5103918;28;19916;-66
2021/11/26 15:04:25;;;;;;;;;;;;;;;;;;5105750;28;19916;-66
2021/11/26 15:06:50;;;;;;;;;;;;;;;;;;5102816;28;20130;-66
2021/11/26 15:09:15;;;;;;;;;;;;;;;;;;5101850;28;19988;-67
2021/11/26 15:11:43;;;;;;;;;;;;;;;;;;5101290;28;19958;-66
2021/11/26 15:14:09;;;;;;;;;;;;;;;;;;5105427;28;19920;-65
2021/11/26 15:16:34;;;;;;;;;;;;;;;;;;5104861;28;19923;-66
2021/11/26 15:18:59;;;;;;;;;;;;;;;;;;5103656;28;20015;-66
2021/11/26 15:21:24;;;;;;;;;;;;;;;;;;5101942;28;19916;-66
2021/11/26 15:23:49;;;;;;;;;;;;;;;;;;5103759;28;19912;-66
2021/11/26 15:26:15;;;;;;;;;;;;;;;;;;5107116;28;19923;-66
2021/11/26 15:28:40;;;;;;;;;;;;;;;;;;5108355;28;19941;-67
2021/11/26 15:31:05;;;;;;;;;;;;;;;;;;5108248;28;19941;-66
2021/11/26 15:33:31;;;;;;;;;;;;;;;;;;5108014;28;20135;-66
2021/11/26 15:35:56;;;;;;;;;;;;;;;;;;5109902;28;20775;-66
2021/11/26 15:38:21;;;;;;;;;;;;;;;;;;5107754;28;19920;-66
2021/11/26 15:40:47;;;;;;;;;;;;;;;;;;5110649;28;19954;-66
2021/11/26 15:43:12;;;;;;;;;;;;;;;;;;5112171;28;19916;-65
2021/11/26 15:45:37;;;;;;;;;;;;;;;;;;5104684;28;19916;-65
2021/11/26 15:48:02;;;;;;;;;;;;;;;;;;5107095;28;19922;-64
2021/11/26 15:50:27;;;;;;;;;;;;;;;;;;5107289;28;20030;-66
2021/11/26 15:52:53;;;;;;;;;;;;;;;;;;5107816;28;19919;-66
2021/11/26 15:55:18;;;;;;;;;;;;;;;;;;5104772;28;19916;-67
2021/11/26 15:57:43;;;;;;;;;;;;;;;;;;5118962;27;19916;-67
2021/11/26 16:00:08;;;;;;;;;;;;;;;;;;5107971;28;19924;-67
2021/11/26 16:02:36;;;;;;;;;;;;;;;;;;5105133;28;19916;-67
2021/11/26 16:05:01;;;;;;;;;;;;;;;;;;5105009;28;19947;-67
2021/11/26 16:07:27;;;;;;;;;;;;;;;;;;5107157;28;19923;-68
2021/11/26 16:09:52;;;;;;;;;;;;;;;;;;5107735;28;19916;-67
2021/11/26 16:12:17;;;;;;;;;;;;;;;;;;5102971;28;19924;-67
2021/11/26 16:14:42;;;;;;;;;;;;;;;;;;5090897;28;20373;-67
2021/11/26 16:17:08;;;;;;;;;;;;;;;;;;5101452;28;19977;-67
2021/11/26 16:19:33;;;;;;;;;;;;;;;;;;5099338;28;19982;-67
2021/11/26 16:21:58;;;;;;;;;;;;;;;;;;5102636;28;19921;-67
2021/11/26 16:24:23;;;;;;;;;;;;;;;;;;5097670;28;19916;-68
2021/11/26 16:26:50;;;;;;;;;;;;;;;;;;5097655;28;19916;-67
2021/11/26 16:29:15;;;;;;;;;;;;;;;;;;5105728;28;19924;-66
2021/11/26 16:31:52;;;;;;;;;;;;;;;;;;5099283;28;19924;-67
2021/11/26 16:37:18;;;;;;;;;;;;;;;;;;5097754;28;19957;-67
2021/11/26 16:39:34;;;;;;;;;;;;;;;;;;5093798;28;19924;-66
2021/11/26 16:41:59;;;;;;;;;;;;;;;;;;5099458;28;20235;-68
2021/11/26 16:44:25;;;;;;;;;;;;;;;;;;5091763;28;20046;-66
2021/11/26 16:46:50;;;;;;;;;;;;;;;;;;5103217;27;20246;-65
2021/11/26 16:49:16;;;;;;;;;;;;;;;;;;5084259;28;20010;-67
2021/11/26 16:51:42;;;;;;;;;;;;;;;;;;5084291;28;19928;-66